createdAt,value
2023-05-05T00:02:44.845Z,100743.34
2023-05-05T00:05:50.427Z,100694.06
2023-05-05T00:08:52.207Z,100727.75
2023-05-05T00:11:54.021Z,100746.03
2023-05-05T00:14:55.878Z,100742.72
2023-05-05T00:17:57.785Z,100736.53
2023-05-05T00:20:59.744Z,100731.44
2023-05-05T00:24:05.002Z,100721.97
2023-05-05T00:27:06.813Z,100735.22
2023-05-05T00:30:09.135Z,100717.22
2023-05-05T00:33:11.381Z,100730.28
2023-05-05T00:36:13.805Z,100736.19
2023-05-05T00:39:16.574Z,100738.75
2023-05-05T00:42:19.177Z,100723.19
2023-05-05T00:45:21.057Z,100727.63
2023-05-05T00:48:25.549Z,100726.72
2023-05-05T00:51:28.427Z,100727.50
2023-05-05T00:54:30.490Z,100732.59
2023-05-05T00:57:33.799Z,100736.03
2023-05-05T01:00:35.956Z,100688.94
2023-05-05T01:03:39.473Z,100720.19
2023-05-05T01:07:08.415Z,100734.88
2023-05-05T01:10:20.463Z,100741.16
2023-05-05T01:13:54.477Z,100736.88
2023-05-05T01:17:00.084Z,100719.53
2023-05-05T01:20:26.409Z,100718.72
2023-05-05T01:24:02.333Z,100717.97
2023-05-05T01:27:43.315Z,100724.03
2023-05-05T01:31:22.758Z,100728.59
2023-05-05T01:34:29.042Z,100709.72
2023-05-05T01:38:17.399Z,100711.69
2023-05-05T01:41:39.621Z,100716.28
2023-05-05T01:44:44.948Z,100717.16
2023-05-05T01:47:47.742Z,100699.59
2023-05-05T01:50:52.296Z,100712.47
2023-05-05T01:53:57.759Z,100685.44
2023-05-05T01:57:02.182Z,100691.31
2023-05-05T02:00:04.862Z,100708.63
2023-05-05T02:03:18.726Z,100713.72
2023-05-05T02:06:22.944Z,100698.81
2023-05-05T02:09:29.487Z,100699.59
2023-05-05T02:12:32.370Z,100659.44
2023-05-05T02:15:36.027Z,100700.31
2023-05-05T02:18:38.964Z,100681.16
2023-05-05T02:21:41.875Z,100699.44
2023-05-05T02:24:44.570Z,100716.97
2023-05-05T02:27:48.172Z,100659.59
2023-05-05T02:31:00.674Z,100690.97
2023-05-05T02:34:05.343Z,100692.97
2023-05-05T02:37:12.844Z,100700.03
2023-05-05T02:40:23.812Z,100719.25
2023-05-05T02:43:31.268Z,100722.56
2023-05-05T02:46:33.466Z,100714.72
2023-05-05T02:49:35.396Z,100720.78
2023-05-05T02:52:37.660Z,100714.81
2023-05-05T02:56:01.149Z,100726.38
2023-05-05T02:59:16.574Z,100726.50
2023-05-05T03:02:27.819Z,100717.09
2023-05-05T03:05:38.729Z,100720.78
2023-05-05T03:08:56.233Z,100727.91
2023-05-05T03:12:05.702Z,100718.59
2023-05-05T03:15:16.789Z,100735.13
2023-05-05T03:18:20.457Z,100736.13
2023-05-05T03:21:29.446Z,100731.84
2023-05-05T03:24:31.352Z,100726.63
2023-05-05T03:27:39.060Z,100734.59
2023-05-05T03:30:42.109Z,100731.19
2023-05-05T03:33:44.906Z,100743.44
2023-05-05T03:36:46.778Z,100721.66
2023-05-05T03:39:50.548Z,100703.41
2023-05-05T03:42:52.762Z,100717.19
2023-05-05T03:45:54.949Z,100722.47
2023-05-05T03:48:57.400Z,100718.94
2023-05-05T03:52:00.773Z,100727.66
2023-05-05T03:55:03.272Z,100682.66
2023-05-05T03:58:05.243Z,100724.41
2023-05-05T04:01:07.252Z,100727.84
2023-05-05T04:04:09.669Z,100739.84
2023-05-05T04:07:11.694Z,100741.38
2023-05-05T04:10:13.506Z,100717.69
2023-05-05T04:13:15.520Z,100734.16
2023-05-05T04:16:17.412Z,100731.19
2023-05-05T04:19:19.244Z,100729.19
2023-05-05T04:22:21.486Z,100729.72
2023-05-05T04:25:23.888Z,100705.28
2023-05-05T04:28:25.828Z,100743.28
2023-05-05T04:31:27.788Z,100748.56
2023-05-05T04:34:29.715Z,100761.34
2023-05-05T04:37:31.569Z,100758.72
2023-05-05T04:40:38.165Z,100747.19
2023-05-05T04:43:41.046Z,100749.16
2023-05-05T04:46:42.869Z,100765.38
2023-05-05T04:49:45.174Z,100752.91
2023-05-05T04:52:46.959Z,100756.97
2023-05-05T04:55:48.819Z,100767.25
2023-05-05T04:58:50.909Z,100771.97
2023-05-05T05:01:52.720Z,100771.59
2023-05-05T05:04:54.559Z,100771.47
2023-05-05T05:07:56.329Z,100774.94
2023-05-05T05:10:59.632Z,100754.81
2023-05-05T05:14:01.472Z,100778.84
2023-05-05T05:17:04.819Z,100739.56
2023-05-05T05:20:08.234Z,100782.56
2023-05-05T05:23:10.909Z,100780.72
2023-05-05T05:26:17.654Z,100781.94
2023-05-05T05:29:20.489Z,100780.19
2023-05-05T05:32:23.159Z,100781.06
2023-05-05T05:35:25.012Z,100757.03
2023-05-05T05:38:26.797Z,100777.56
2023-05-05T05:41:31.884Z,100787.47
2023-05-05T05:44:33.871Z,100786.16
2023-05-05T05:47:36.590Z,100780.66
2023-05-05T05:50:38.388Z,100781.47
2023-05-05T05:53:40.556Z,100786.97
2023-05-05T05:56:43.508Z,100783.59
2023-05-05T05:59:46.383Z,100772.00
2023-05-05T06:02:48.466Z,100783.09
2023-05-05T06:05:53.624Z,100774.44
2023-05-05T06:08:55.816Z,100775.63
2023-05-05T06:11:57.729Z,100766.22
2023-05-05T06:14:59.658Z,100768.94
2023-05-05T06:18:01.653Z,100761.22
2023-05-05T06:21:03.436Z,100768.59
2023-05-05T06:24:06.341Z,100761.53
2023-05-05T06:27:09.859Z,100765.19
2023-05-05T06:30:12.198Z,100773.88
2023-05-05T06:33:13.959Z,100766.16
2023-05-05T06:36:15.827Z,100768.59
2023-05-05T06:39:17.688Z,100771.44
2023-05-05T06:42:19.396Z,100773.75
2023-05-05T06:45:21.789Z,100775.34
2023-05-05T06:48:23.736Z,100749.75
2023-05-05T06:51:27.672Z,100764.97
2023-05-05T06:54:29.430Z,100752.25
2023-05-05T06:57:31.331Z,100753.06
2023-05-05T07:00:34.109Z,100768.59
2023-05-05T07:03:35.908Z,100740.63
2023-05-05T07:06:37.696Z,100734.91
2023-05-05T07:09:41.293Z,100761.63
2023-05-05T07:12:43.069Z,100759.69
2023-05-05T07:15:47.744Z,100768.94
2023-05-05T07:18:49.557Z,100750.19
2023-05-05T07:21:52.160Z,100753.81
2023-05-05T07:24:53.961Z,100762.13
2023-05-05T07:27:56.482Z,100767.91
2023-05-05T07:30:58.337Z,100766.88
2023-05-05T07:34:00.150Z,100758.75
2023-05-05T07:37:02.031Z,100758.56
2023-05-05T07:40:04.138Z,100756.25
2023-05-05T07:43:05.987Z,100749.28
2023-05-05T07:46:08.561Z,100751.19
2023-05-05T07:49:10.439Z,100743.59
2023-05-05T07:52:12.345Z,100731.81
2023-05-05T07:55:14.073Z,100742.66
2023-05-05T07:58:16.385Z,100746.50
2023-05-05T08:01:18.447Z,100745.84
2023-05-05T08:04:20.320Z,100742.03
2023-05-05T08:07:22.086Z,100738.63
2023-05-05T08:10:23.904Z,100737.34
2023-05-05T08:13:25.760Z,100724.91
2023-05-05T08:16:27.766Z,100742.94
2023-05-05T08:19:29.823Z,100743.78
2023-05-05T08:22:32.733Z,100734.78
2023-05-05T08:25:34.453Z,100746.56
2023-05-05T08:28:36.959Z,100730.78
2023-05-05T08:31:38.817Z,100737.88
2023-05-05T08:34:40.658Z,100751.28
2023-05-05T08:37:42.535Z,100755.56
2023-05-05T08:40:44.905Z,100753.97
2023-05-05T08:43:48.226Z,100756.66
2023-05-05T08:46:50.718Z,100754.22
2023-05-05T08:49:55.749Z,100753.00
2023-05-05T08:53:18.133Z,100753.59
2023-05-05T08:56:24.233Z,100727.66
2023-05-05T08:59:30.178Z,100724.94
2023-05-05T09:02:32.994Z,100746.34
2023-05-05T09:05:36.033Z,100735.47
2023-05-05T09:08:38.602Z,100737.78
2023-05-05T09:11:41.758Z,100741.09
2023-05-05T09:14:43.438Z,100748.72
2023-05-05T09:17:45.231Z,100740.44
2023-05-05T09:20:47.045Z,100721.31
2023-05-05T09:24:11.224Z,100726.63
2023-05-05T09:27:23.194Z,100736.97
2023-05-05T09:30:26.108Z,100740.91
2023-05-05T09:33:31.570Z,100744.22
2023-05-05T09:36:50.264Z,100733.56
2023-05-05T09:39:55.812Z,100729.78
2023-05-05T09:43:02.772Z,100736.38
2023-05-05T09:46:08.555Z,100728.66
2023-05-05T09:49:15.588Z,100718.00
2023-05-05T09:52:17.832Z,100713.28
2023-05-05T09:55:19.767Z,100689.88
2023-05-05T09:58:24.048Z,100710.06
2023-05-05T10:01:28.914Z,100699.81
2023-05-05T10:04:31.540Z,100701.47
2023-05-05T10:07:34.123Z,100717.19
2023-05-05T10:10:36.381Z,100692.97
2023-05-05T10:13:42.184Z,100708.78
2023-05-05T10:16:51.011Z,100707.47
2023-05-05T10:19:57.415Z,100690.59
2023-05-05T10:23:02.770Z,100697.88
2023-05-05T10:26:07.732Z,100695.25
2023-05-05T10:29:55.036Z,100691.66
2023-05-05T10:36:29.246Z,100666.97
2023-05-05T10:39:32.042Z,100679.09
2023-05-05T10:42:33.805Z,100683.09
2023-05-05T10:45:37.655Z,100681.91
2023-05-05T10:48:51.404Z,100664.09
2023-05-05T10:52:00.476Z,100660.25
2023-05-05T10:55:05.003Z,100674.16
2023-05-05T10:58:06.736Z,100658.75
2023-05-05T11:01:09.445Z,100671.25
2023-05-05T11:04:18.818Z,100640.47
2023-05-05T11:07:23.986Z,100665.63
2023-05-05T11:10:26.441Z,100658.19
2023-05-05T11:13:28.713Z,100644.22
2023-05-05T11:16:45.664Z,100640.75
2023-05-05T11:19:48.257Z,100640.81
2023-05-05T11:23:05.364Z,100650.34
2023-05-05T11:26:07.343Z,100635.38
2023-05-05T11:29:09.296Z,100641.19
2023-05-05T11:32:13.141Z,100633.31
2023-05-05T11:35:15.558Z,100642.06
2023-05-05T11:38:21.128Z,100632.84
2023-05-05T11:41:34.934Z,100628.66
2023-05-05T11:44:36.823Z,100583.94
2023-05-05T11:47:39.085Z,100622.59
2023-05-05T11:50:40.992Z,100609.28
2023-05-05T11:53:46.565Z,100614.81
2023-05-05T11:56:53.694Z,100614.19
2023-05-05T12:00:03.109Z,100613.09
2023-05-05T12:03:07.142Z,100574.38
2023-05-05T12:06:09.194Z,100618.50
2023-05-05T12:09:19.918Z,100602.28
2023-05-05T12:12:35.042Z,100599.44
2023-05-05T12:15:37.431Z,100596.94
2023-05-05T12:18:40.432Z,100569.19
2023-05-05T12:21:45.668Z,100594.47
2023-05-05T12:25:02.899Z,100595.47
2023-05-05T12:28:06.629Z,100581.38
2023-05-05T12:31:09.425Z,100596.28
2023-05-05T12:34:12.271Z,100587.50
2023-05-05T12:37:16.415Z,100559.50
2023-05-05T12:40:51.937Z,100591.94
2023-05-05T12:43:58.395Z,100585.59
2023-05-05T12:47:00.127Z,100574.94
2023-05-05T12:50:03.375Z,100579.66
2023-05-05T12:53:05.121Z,100575.97
2023-05-05T12:56:06.973Z,100576.44
2023-05-05T12:59:21.382Z,100557.44
2023-05-05T13:02:34.634Z,100557.72
2023-05-05T13:05:36.714Z,100534.22
2023-05-05T13:08:44.782Z,100551.59
2023-05-05T13:11:46.597Z,100537.28
2023-05-05T13:14:48.635Z,100540.50
2023-05-05T13:17:50.414Z,100550.78
2023-05-05T13:20:52.258Z,100532.94
2023-05-05T13:23:54.827Z,100531.75
2023-05-05T13:26:59.156Z,100528.00
2023-05-05T13:30:01.285Z,100531.56
2023-05-05T13:33:06.077Z,100535.06
2023-05-05T13:36:08.209Z,100529.28
2023-05-05T13:39:10.137Z,100528.38
2023-05-05T13:42:11.932Z,100508.91
2023-05-05T13:45:14.350Z,100516.16
2023-05-05T13:48:16.380Z,100501.00
2023-05-05T13:51:18.108Z,100518.09
2023-05-05T13:54:20.458Z,100509.66
2023-05-05T13:57:22.406Z,100518.88
2023-05-05T14:00:24.352Z,100522.56
2023-05-05T14:03:26.208Z,100506.53
2023-05-05T14:06:28.145Z,100496.00
2023-05-05T14:09:29.950Z,100506.75
2023-05-05T14:12:32.360Z,100501.75
2023-05-05T14:15:35.009Z,100509.34
2023-05-05T14:18:36.727Z,100501.28
2023-05-05T14:21:38.489Z,100498.59
2023-05-05T14:24:40.220Z,100482.47
2023-05-05T14:27:42.014Z,100481.34
2023-05-05T14:30:43.827Z,100495.03
2023-05-05T14:33:46.076Z,100487.97
2023-05-05T14:36:47.849Z,100489.53
2023-05-05T14:39:49.667Z,100492.97
2023-05-05T14:42:51.564Z,100494.53
2023-05-05T14:45:53.450Z,100498.53
2023-05-05T14:48:55.479Z,100502.47
2023-05-05T14:51:57.254Z,100495.53
2023-05-05T14:54:59.172Z,100460.94
2023-05-05T14:58:00.937Z,100483.34
2023-05-05T15:01:02.737Z,100480.53
2023-05-05T15:04:04.953Z,100494.63
2023-05-05T15:07:06.968Z,100492.91
2023-05-05T15:10:12.105Z,100495.09
2023-05-05T15:13:13.945Z,100490.81
2023-05-05T15:16:16.384Z,100498.09
2023-05-05T15:19:18.059Z,100484.66
2023-05-05T15:22:19.767Z,100493.06
2023-05-05T15:25:21.763Z,100487.53
2023-05-05T15:28:26.701Z,100487.94
2023-05-05T15:31:28.413Z,100482.81
2023-05-05T15:34:30.286Z,100485.44
2023-05-05T15:37:32.348Z,100484.44
2023-05-05T15:40:36.087Z,100486.81
2023-05-05T15:43:37.807Z,100487.06
2023-05-05T15:46:40.952Z,100481.88
2023-05-05T15:49:42.777Z,100483.22
2023-05-05T15:52:44.625Z,100468.34
2023-05-05T15:55:46.871Z,100474.59
2023-05-05T15:58:48.594Z,100475.47
2023-05-05T16:01:50.263Z,100466.78
2023-05-05T16:04:52.301Z,100482.31
2023-05-05T16:07:54.156Z,100420.06
2023-05-05T16:10:57.357Z,100477.19
2023-05-05T16:13:59.202Z,100465.88
2023-05-05T16:17:03.612Z,100456.00
2023-05-05T16:20:06.629Z,100461.38
2023-05-05T16:23:08.808Z,100445.81
2023-05-05T16:26:10.543Z,100460.03
2023-05-05T16:29:13.445Z,100464.88
2023-05-05T16:32:15.127Z,100449.56
2023-05-05T16:35:17.080Z,100450.06
2023-05-05T16:38:18.794Z,100452.53
2023-05-05T16:41:21.278Z,100459.22
2023-05-05T16:44:23.055Z,100455.13
2023-05-05T16:47:25.245Z,100454.84
2023-05-05T16:50:27.051Z,100456.34
2023-05-05T16:53:28.792Z,100420.81
2023-05-05T16:56:30.565Z,100459.56
2023-05-05T16:59:32.334Z,100458.72
2023-05-05T17:02:35.369Z,100419.66
2023-05-05T17:05:37.325Z,100459.38
2023-05-05T17:08:39.223Z,100458.25
2023-05-05T17:11:40.918Z,100467.13
2023-05-05T17:14:42.973Z,100473.34
2023-05-05T17:17:44.788Z,100463.06
2023-05-05T17:20:46.556Z,100467.78
2023-05-05T17:23:48.272Z,100435.41
2023-05-05T17:26:50.595Z,100463.91
2023-05-05T17:29:52.787Z,100448.88
2023-05-05T17:32:54.797Z,100442.28
2023-05-05T17:35:56.627Z,100461.22
2023-05-05T17:38:58.477Z,100468.03
2023-05-05T17:42:00.153Z,100466.69
2023-05-05T17:45:05.331Z,100469.41
2023-05-05T17:48:07.598Z,100473.19
2023-05-05T17:51:09.332Z,100470.41
2023-05-05T17:54:11.190Z,100478.63
2023-05-05T17:57:13.342Z,100475.19
2023-05-05T18:00:15.452Z,100477.28
2023-05-05T18:03:17.555Z,100460.69
2023-05-05T18:06:19.379Z,100483.78
2023-05-05T18:09:21.334Z,100489.66
2023-05-05T18:12:23.101Z,100485.44
2023-05-05T18:15:25.046Z,100489.94
2023-05-05T18:18:26.879Z,100496.38
2023-05-05T18:21:29.536Z,100481.75
2023-05-05T18:24:31.878Z,100490.91
2023-05-05T18:27:34.356Z,100519.63
2023-05-05T18:30:36.209Z,100510.06
2023-05-05T18:33:38.012Z,100503.63
2023-05-05T18:36:39.712Z,100514.38
2023-05-05T18:39:43.798Z,100491.22
2023-05-05T18:42:45.792Z,100520.22
2023-05-05T18:45:47.566Z,100518.19
2023-05-05T18:48:49.348Z,100525.06
2023-05-05T18:51:51.133Z,100527.75
2023-05-05T18:54:53.214Z,100526.03
2023-05-05T18:57:55.081Z,100530.59
2023-05-05T19:00:57.905Z,100530.94
2023-05-05T19:03:59.837Z,100527.78
2023-05-05T19:07:01.609Z,100507.53
2023-05-05T19:10:07.226Z,100518.97
2023-05-05T19:13:11.298Z,100528.69
2023-05-05T19:16:13.112Z,100523.97
2023-05-05T19:19:14.982Z,100527.31
2023-05-05T19:22:20.981Z,100544.44
2023-05-05T19:25:22.825Z,100537.91
2023-05-05T19:28:24.588Z,100501.28
2023-05-05T19:31:30.883Z,100520.38
2023-05-05T19:34:33.136Z,100512.78
2023-05-05T19:37:34.870Z,100513.72
2023-05-05T19:40:40.089Z,100520.53
2023-05-05T19:43:41.967Z,100518.03
2023-05-05T19:46:43.803Z,100508.31
2023-05-05T19:49:45.683Z,100515.97
2023-05-05T19:52:47.425Z,100514.09
2023-05-05T19:55:49.270Z,100527.53
2023-05-05T19:58:57.805Z,100470.53
2023-05-05T20:01:59.650Z,100527.75
2023-05-05T20:05:01.545Z,100535.72
2023-05-05T20:08:03.351Z,100500.63
2023-05-05T20:11:05.135Z,100527.63
2023-05-05T20:14:11.742Z,100492.63
2023-05-05T20:17:13.536Z,100537.00
2023-05-05T20:20:18.711Z,100541.88
2023-05-05T20:23:20.427Z,100524.97
2023-05-05T20:26:24.680Z,100529.31
2023-05-05T20:29:26.910Z,100522.47
2023-05-05T20:32:29.617Z,100532.38
2023-05-05T20:35:31.340Z,100530.88
2023-05-05T20:38:34.207Z,100497.50
2023-05-05T20:41:38.032Z,100527.84
2023-05-05T20:44:40.165Z,100532.38
2023-05-05T20:47:41.989Z,100521.25
2023-05-05T20:50:43.707Z,100533.56
2023-05-05T20:53:46.274Z,100498.47
2023-05-05T20:56:47.985Z,100512.59
2023-05-05T20:59:49.789Z,100499.78
2023-05-05T21:02:51.660Z,100516.53
2023-05-05T21:05:54.249Z,100519.00
2023-05-05T21:08:56.156Z,100472.03
2023-05-05T21:11:57.922Z,100492.63
2023-05-05T21:14:59.752Z,100522.22
2023-05-05T21:18:01.613Z,100522.59
2023-05-05T21:21:03.448Z,100507.50
2023-05-05T21:24:07.744Z,100511.16
2023-05-05T21:27:10.352Z,100510.50
2023-05-05T21:30:12.734Z,100515.91
2023-05-05T21:33:14.888Z,100506.50
2023-05-05T21:36:19.576Z,100500.00
2023-05-05T21:39:21.371Z,100508.06
2023-05-05T21:42:24.359Z,100504.75
2023-05-05T21:45:26.147Z,100514.28
2023-05-05T21:48:28.239Z,100503.97
2023-05-05T21:51:30.093Z,100508.25
2023-05-05T21:54:31.827Z,100515.25
2023-05-05T21:57:33.738Z,100500.63
2023-05-05T22:00:35.635Z,100489.69
2023-05-05T22:03:37.498Z,100473.53
2023-05-05T22:06:39.253Z,100494.22
2023-05-05T22:09:40.972Z,100440.06
2023-05-05T22:12:42.765Z,100509.59
2023-05-05T22:15:47.266Z,100491.38
2023-05-05T22:18:49.882Z,100501.75
2023-05-05T22:21:53.328Z,100481.81
2023-05-05T22:24:55.373Z,100486.31
2023-05-05T22:27:57.089Z,100459.69
2023-05-05T22:30:58.933Z,100473.81
2023-05-05T22:34:00.877Z,100479.78
2023-05-05T22:37:02.584Z,100491.22
2023-05-05T22:40:04.911Z,100475.53
2023-05-05T22:43:06.616Z,100482.50
2023-05-05T22:46:08.337Z,100468.63
2023-05-05T22:49:10.374Z,100484.34
2023-05-05T22:52:12.643Z,100480.38
2023-05-05T22:55:15.095Z,100483.25
2023-05-05T22:58:16.834Z,100469.38
2023-05-05T23:01:18.656Z,100465.38
2023-05-05T23:04:20.520Z,100481.16
2023-05-05T23:07:22.345Z,100457.22
2023-05-05T23:10:24.035Z,100478.03
2023-05-05T23:13:25.844Z,100479.81
2023-05-05T23:16:27.603Z,100468.66
2023-05-05T23:19:32.092Z,100453.25
2023-05-05T23:22:33.873Z,100447.19
2023-05-05T23:25:35.906Z,100460.25
2023-05-05T23:28:37.741Z,100456.84
2023-05-05T23:31:39.453Z,100463.31
2023-05-05T23:34:41.500Z,100438.44
2023-05-05T23:37:43.201Z,100475.75
2023-05-05T23:40:44.928Z,100420.44
2023-05-05T23:43:46.864Z,100452.56
2023-05-05T23:46:50.192Z,100458.88
2023-05-05T23:49:53.289Z,100435.56
2023-05-05T23:52:55.444Z,100482.34
2023-05-05T23:55:57.269Z,100480.13
2023-05-05T23:58:59.030Z,100470.94
